Terminal Aerodrome Forecast
Issued by NWS

Home | Current Version | Previous Version | Text Only | Print | Product List | Glossary On
Versions: 1 2 3 4 5 6 7 8 9 10 11 12 13 14
000
FTPA31 PHFO 162331
TAFHLI
TAF
PHLI 162331Z 1700/1724 08007KT P6SM FEW035 SCT250
     FM171200 05007KT P6SM FEW020 BKN035
     FM172100 05010KT P6SM FEW035 SCT060=

USA.gov is the U.S. government's official web portal to all federal, state and local government web resources and services.